createdAt,value
2024-01-29T00:00:58.928Z,102927.19
2024-01-29T00:03:26.554Z,102931.19
2024-01-29T00:05:54.120Z,102926.00
2024-01-29T00:08:21.531Z,102932.97
2024-01-29T00:10:49.125Z,102926.81
2024-01-29T00:13:16.797Z,102921.75
2024-01-29T00:15:44.340Z,102934.84
2024-01-29T00:18:11.777Z,102934.50
2024-01-29T00:20:39.243Z,102928.13
2024-01-29T00:23:06.621Z,102937.81
2024-01-29T00:25:34.091Z,102941.59
2024-01-29T00:28:01.607Z,102933.31
2024-01-29T00:30:29.233Z,102935.47
2024-01-29T00:32:56.612Z,102929.09
2024-01-29T00:35:24.009Z,102939.47
2024-01-29T00:37:51.418Z,102937.59
2024-01-29T00:40:19.349Z,102940.28
2024-01-29T00:42:46.763Z,102947.38
2024-01-29T00:45:14.313Z,102940.78
2024-01-29T00:47:41.898Z,102938.31
2024-01-29T00:50:09.999Z,102946.66
2024-01-29T00:52:37.489Z,102940.16
2024-01-29T00:55:05.336Z,102935.81
2024-01-29T00:57:32.815Z,102941.72
2024-01-29T01:00:00.396Z,102937.34
2024-01-29T01:02:27.768Z,102938.88
2024-01-29T01:04:55.593Z,102941.59
2024-01-29T01:07:23.291Z,102935.56
2024-01-29T01:09:50.717Z,102935.22
2024-01-29T01:12:18.241Z,102937.94
2024-01-29T01:14:45.632Z,102928.97
2024-01-29T01:17:13.433Z,102930.00
2024-01-29T01:19:40.933Z,102921.84
2024-01-29T01:22:08.609Z,102922.31
2024-01-29T01:24:36.211Z,102922.81
2024-01-29T01:27:04.604Z,102917.88
2024-01-29T01:29:32.153Z,102922.69
2024-01-29T01:31:59.549Z,102913.47
2024-01-29T01:34:27.256Z,102918.09
2024-01-29T01:36:54.748Z,102915.63
2024-01-29T01:39:22.420Z,102909.59
2024-01-29T01:41:51.868Z,102911.47
2024-01-29T01:44:19.522Z,102910.66
2024-01-29T01:46:47.217Z,102911.69
2024-01-29T01:49:16.119Z,102905.22
2024-01-29T01:51:45.330Z,102915.00
2024-01-29T01:54:13.825Z,102906.25
2024-01-29T01:56:41.959Z,102911.34
2024-01-29T01:59:12.020Z,102906.16
2024-01-29T02:01:40.744Z,102910.16
2024-01-29T02:04:09.104Z,102911.81
2024-01-29T02:06:36.689Z,102904.72
2024-01-29T02:09:04.595Z,102908.03
2024-01-29T02:11:32.435Z,102905.56
2024-01-29T02:13:59.925Z,102896.59
2024-01-29T02:16:27.396Z,102901.78
2024-01-29T02:18:54.922Z,102905.78
2024-01-29T02:21:22.626Z,102902.25
2024-01-29T02:23:50.130Z,102895.41
2024-01-29T02:26:17.562Z,102903.56
2024-01-29T02:28:45.118Z,102887.72
2024-01-29T02:31:12.839Z,102895.06
2024-01-29T02:33:40.432Z,102893.97
2024-01-29T02:36:08.044Z,102897.75
2024-01-29T02:38:35.619Z,102888.19
2024-01-29T02:41:03.086Z,102888.66
2024-01-29T02:43:30.622Z,102892.09
2024-01-29T02:45:58.070Z,102880.88
2024-01-29T02:48:25.748Z,102877.81
2024-01-29T02:50:53.119Z,102874.69
2024-01-29T02:53:20.664Z,102879.31
2024-01-29T02:55:48.078Z,102866.44
2024-01-29T02:58:15.628Z,102872.34
2024-01-29T03:00:43.083Z,102869.28
2024-01-29T03:03:12.536Z,102864.31
2024-01-29T03:05:40.144Z,102876.78
2024-01-29T03:08:07.738Z,102874.09
2024-01-29T03:10:35.648Z,102878.69
2024-01-29T03:13:03.054Z,102875.97
2024-01-29T03:15:30.948Z,102874.09
2024-01-29T03:17:58.521Z,102881.41
2024-01-29T03:20:26.103Z,102877.50
2024-01-29T03:22:53.648Z,102874.19
2024-01-29T03:25:21.158Z,102873.38
2024-01-29T03:27:48.553Z,102874.09
2024-01-29T03:30:16.499Z,102873.25
2024-01-29T03:32:44.378Z,102869.59
2024-01-29T03:35:11.929Z,102876.31
2024-01-29T03:37:39.434Z,102874.88
2024-01-29T03:40:07.598Z,102875.56
2024-01-29T03:42:35.190Z,102874.16
2024-01-29T03:45:02.687Z,102875.19
2024-01-29T03:47:30.103Z,102871.34
2024-01-29T03:49:57.952Z,102876.06
2024-01-29T03:52:25.948Z,102872.91
2024-01-29T03:54:54.358Z,102868.53
2024-01-29T03:57:22.782Z,102874.16
2024-01-29T03:59:50.362Z,102871.19
2024-01-29T04:02:17.780Z,102876.44
2024-01-29T04:04:45.618Z,102870.06
2024-01-29T04:07:13.183Z,102866.16
2024-01-29T04:09:40.758Z,102864.72
2024-01-29T04:12:08.493Z,102862.25
2024-01-29T04:14:35.880Z,102869.09
2024-01-29T04:17:07.077Z,102866.16
2024-01-29T04:19:35.179Z,102874.81
2024-01-29T04:22:02.822Z,102874.44
2024-01-29T04:24:30.489Z,102889.28
2024-01-29T04:26:58.188Z,102878.97
2024-01-29T04:29:25.794Z,102872.03
2024-01-29T04:31:53.207Z,102871.66
2024-01-29T04:34:21.015Z,102877.50
2024-01-29T04:36:48.424Z,102884.59
2024-01-29T04:39:16.020Z,102874.75
2024-01-29T04:41:43.350Z,102884.75
2024-01-29T04:44:10.800Z,102888.50
2024-01-29T04:46:38.205Z,102885.03
2024-01-29T04:49:05.981Z,102879.94
2024-01-29T04:51:33.936Z,102885.06
2024-01-29T04:54:01.716Z,102895.56
2024-01-29T04:56:29.049Z,102881.47
2024-01-29T04:58:56.575Z,102883.81
2024-01-29T05:01:24.047Z,102888.78
2024-01-29T05:03:53.270Z,102891.44
2024-01-29T05:06:21.133Z,102899.09
2024-01-29T05:08:48.676Z,102900.53
2024-01-29T05:11:16.312Z,102902.78
2024-01-29T05:13:44.647Z,102911.50
2024-01-29T05:16:12.470Z,102914.84
2024-01-29T05:18:40.372Z,102914.59
2024-01-29T05:21:08.206Z,102904.16
2024-01-29T05:23:35.627Z,102919.94
2024-01-29T05:26:03.290Z,102921.59
2024-01-29T05:28:30.819Z,102926.97
2024-01-29T05:30:58.363Z,102926.72
2024-01-29T05:33:27.213Z,102926.50
2024-01-29T05:35:58.103Z,102922.50
2024-01-29T05:38:26.236Z,102920.41
2024-01-29T05:40:53.642Z,102920.41
2024-01-29T05:43:21.165Z,102930.44
2024-01-29T05:45:48.576Z,102930.19
2024-01-29T05:48:16.258Z,102930.63
2024-01-29T05:50:43.705Z,102935.22
2024-01-29T05:53:11.954Z,102926.91
2024-01-29T05:55:39.374Z,102935.84
2024-01-29T05:58:07.918Z,102938.50
2024-01-29T06:00:35.689Z,102937.19
2024-01-29T06:03:03.296Z,102935.09
2024-01-29T06:05:30.925Z,102936.53
2024-01-29T06:07:58.511Z,102932.56
2024-01-29T06:10:26.099Z,102941.25
2024-01-29T06:12:54.903Z,102945.66
2024-01-29T06:15:30.277Z,102911.91
2024-01-29T06:17:57.910Z,102939.38
2024-01-29T06:20:25.653Z,102948.94
2024-01-29T06:22:54.133Z,102946.16
2024-01-29T06:25:22.164Z,102954.84
2024-01-29T06:27:49.765Z,102946.63
2024-01-29T06:30:17.364Z,102948.75
2024-01-29T06:32:44.991Z,102954.31
2024-01-29T06:35:12.429Z,102947.00
2024-01-29T06:37:40.480Z,102947.56
2024-01-29T06:40:09.746Z,102947.13
2024-01-29T06:42:37.351Z,102950.47
2024-01-29T06:45:06.112Z,102946.50
2024-01-29T06:47:33.536Z,102952.19
2024-01-29T06:50:01.311Z,102945.56
2024-01-29T06:52:29.415Z,102947.50
2024-01-29T06:54:57.182Z,102957.66
2024-01-29T06:57:24.606Z,102958.72
2024-01-29T06:59:52.186Z,102962.16
2024-01-29T07:02:19.534Z,102956.72
2024-01-29T07:04:47.154Z,102966.03
2024-01-29T07:07:14.805Z,102965.81
2024-01-29T07:09:42.314Z,102961.41
2024-01-29T07:12:10.052Z,102969.66
2024-01-29T07:14:40.322Z,102969.78
2024-01-29T07:17:09.554Z,102967.63
2024-01-29T07:19:37.163Z,102975.41
2024-01-29T07:22:06.791Z,102980.13
2024-01-29T07:24:34.794Z,102979.50
2024-01-29T07:27:02.469Z,102981.94
2024-01-29T07:29:31.543Z,102980.47
2024-01-29T07:31:59.688Z,102979.53
2024-01-29T07:34:28.213Z,102979.22
2024-01-29T07:36:55.984Z,102976.94
2024-01-29T07:39:24.316Z,102980.91
2024-01-29T07:41:51.939Z,102975.44
2024-01-29T07:44:19.367Z,102976.44
2024-01-29T07:46:46.904Z,102976.34
2024-01-29T07:49:15.204Z,102966.06
2024-01-29T07:51:42.881Z,102976.44
2024-01-29T07:54:10.261Z,102981.91
2024-01-29T07:56:40.424Z,102969.50
2024-01-29T07:59:07.866Z,102978.97
2024-01-29T08:01:35.464Z,102972.84
2024-01-29T08:04:03.535Z,102973.75
2024-01-29T08:06:31.022Z,102969.69
2024-01-29T08:08:58.653Z,102982.69
2024-01-29T08:11:26.038Z,102980.59
2024-01-29T08:13:53.611Z,102970.09
2024-01-29T08:16:21.294Z,102969.94
2024-01-29T08:18:48.946Z,102972.81
2024-01-29T08:21:16.626Z,102986.50
2024-01-29T08:23:44.297Z,102981.81
2024-01-29T08:26:11.886Z,102984.47
2024-01-29T08:28:39.265Z,102995.06
2024-01-29T08:31:07.880Z,102990.63
2024-01-29T08:33:35.532Z,102992.72
2024-01-29T08:36:03.305Z,102996.28
2024-01-29T08:38:30.698Z,102994.75
2024-01-29T08:40:59.011Z,102999.56
2024-01-29T08:43:26.412Z,103007.03
2024-01-29T08:49:24.461Z,103004.56
2024-01-29T08:51:51.795Z,103007.41
2024-01-29T08:54:19.694Z,103004.09
2024-01-29T08:56:49.128Z,103005.47
2024-01-29T08:59:20.715Z,103011.47
2024-01-29T09:01:48.458Z,103004.78
2024-01-29T09:04:16.108Z,103020.66
2024-01-29T09:06:43.602Z,103014.69
2024-01-29T09:09:11.047Z,103018.81
2024-01-29T09:11:38.412Z,103011.47
2024-01-29T09:14:05.874Z,103015.44
2024-01-29T09:16:34.793Z,103015.00
2024-01-29T09:19:02.884Z,103017.84
2024-01-29T09:21:35.875Z,103020.78
2024-01-29T09:24:03.432Z,103021.94
2024-01-29T09:26:30.991Z,103023.25
2024-01-29T09:28:58.571Z,103022.69
2024-01-29T09:31:26.286Z,103025.38
2024-01-29T09:33:54.795Z,103030.38
2024-01-29T09:36:22.367Z,103029.34
2024-01-29T09:38:49.668Z,103025.19
2024-01-29T09:41:17.272Z,103022.22
2024-01-29T09:43:48.221Z,103024.38
2024-01-29T09:46:18.753Z,103029.25
2024-01-29T09:48:47.571Z,103022.91
2024-01-29T09:51:18.309Z,103031.91
2024-01-29T09:53:46.152Z,103028.44
2024-01-29T09:56:13.823Z,103024.38
2024-01-29T09:58:41.377Z,103024.88
2024-01-29T10:01:13.164Z,103023.44
2024-01-29T10:03:42.935Z,103018.50
2024-01-29T10:06:10.358Z,103021.88
2024-01-29T10:08:38.963Z,103014.56
2024-01-29T10:11:07.361Z,103020.91
2024-01-29T10:13:35.808Z,103022.06
2024-01-29T10:16:03.227Z,103029.28
2024-01-29T10:18:31.832Z,103020.53
2024-01-29T10:21:04.313Z,103021.59
2024-01-29T10:23:32.730Z,103016.72
2024-01-29T10:26:01.564Z,103019.44
2024-01-29T10:28:29.308Z,103011.88
2024-01-29T10:30:58.727Z,103012.97
2024-01-29T10:33:28.459Z,103012.59
2024-01-29T10:36:00.772Z,103010.59
2024-01-29T10:38:30.365Z,103006.34
2024-01-29T10:41:00.445Z,103005.53
2024-01-29T10:43:37.743Z,102999.91
2024-01-29T10:46:10.274Z,102999.09
2024-01-29T10:48:39.642Z,102997.00
2024-01-29T10:51:07.569Z,102996.34
2024-01-29T10:53:35.986Z,102991.69
2024-01-29T10:56:04.884Z,102991.44
2024-01-29T10:58:32.730Z,102986.56
2024-01-29T11:01:01.921Z,102990.91
2024-01-29T11:03:31.092Z,102992.38
2024-01-29T11:06:05.820Z,102982.84
2024-01-29T11:08:36.922Z,102978.19
2024-01-29T11:11:05.833Z,102977.09
2024-01-29T11:13:34.987Z,102977.31
2024-01-29T11:16:02.678Z,102974.84
2024-01-29T11:18:37.285Z,102969.41
2024-01-29T11:21:05.425Z,102965.28
2024-01-29T11:23:42.678Z,102966.09
2024-01-29T11:26:15.087Z,102959.53
2024-01-29T11:28:43.204Z,102955.94
2024-01-29T11:31:12.559Z,102954.31
2024-01-29T11:33:40.950Z,102956.72
2024-01-29T11:36:13.797Z,102951.13
2024-01-29T11:38:41.470Z,102948.09
2024-01-29T11:41:09.001Z,102946.44
2024-01-29T11:43:37.024Z,102937.16
2024-01-29T11:46:07.203Z,102936.91
2024-01-29T11:48:34.888Z,102930.31
2024-01-29T11:51:02.423Z,102933.69
2024-01-29T11:53:30.006Z,102924.38
2024-01-29T11:55:57.563Z,102926.56
2024-01-29T11:58:27.344Z,102920.44
2024-01-29T12:00:55.480Z,102929.50
2024-01-29T12:03:24.938Z,102924.03
2024-01-29T12:05:53.256Z,102925.34
2024-01-29T12:08:22.435Z,102921.53
2024-01-29T12:10:50.378Z,102908.97
2024-01-29T12:13:21.402Z,102915.53
2024-01-29T12:15:54.292Z,102920.41
2024-01-29T12:18:24.545Z,102915.50
2024-01-29T12:20:53.254Z,102918.81
2024-01-29T12:23:24.773Z,102913.25
2024-01-29T12:25:53.650Z,102910.88
2024-01-29T12:28:21.799Z,102914.44
2024-01-29T12:31:06.916Z,102911.69
2024-01-29T12:33:36.935Z,102907.16
2024-01-29T12:36:16.374Z,102904.66
2024-01-29T12:38:46.392Z,102903.47
2024-01-29T12:41:14.544Z,102903.72
2024-01-29T12:43:42.024Z,102901.78
2024-01-29T12:46:14.806Z,102892.97
2024-01-29T12:48:43.623Z,102880.34
2024-01-29T12:51:12.941Z,102885.38
2024-01-29T12:53:42.544Z,102890.25
2024-01-29T12:56:10.019Z,102896.56
2024-01-29T12:58:38.748Z,102882.31
2024-01-29T13:01:06.612Z,102887.34
2024-01-29T13:03:34.889Z,102887.66
2024-01-29T13:06:04.270Z,102882.75
2024-01-29T13:08:33.158Z,102883.81
2024-01-29T13:11:01.331Z,102883.53
2024-01-29T13:13:28.910Z,102879.94
2024-01-29T13:15:56.428Z,102877.56
2024-01-29T13:18:24.558Z,102877.88
2024-01-29T13:20:51.915Z,102884.22
2024-01-29T13:23:19.693Z,102872.44
2024-01-29T13:25:48.529Z,102872.19
2024-01-29T13:28:16.048Z,102865.31
2024-01-29T13:30:44.707Z,102865.34
2024-01-29T13:33:12.473Z,102860.94
2024-01-29T13:35:39.851Z,102857.66
2024-01-29T13:38:07.360Z,102846.69
2024-01-29T13:40:34.797Z,102861.19
2024-01-29T13:43:04.195Z,102852.34
2024-01-29T13:45:31.785Z,102849.84
2024-01-29T13:47:59.911Z,102853.44
2024-01-29T13:50:27.471Z,102849.75
2024-01-29T13:52:55.011Z,102853.84
2024-01-29T13:55:22.533Z,102862.84
2024-01-29T13:57:50.145Z,102855.50
2024-01-29T14:00:18.420Z,102854.41
2024-01-29T14:02:45.827Z,102851.09
2024-01-29T14:05:13.421Z,102849.22
2024-01-29T14:07:40.888Z,102854.31
2024-01-29T14:10:08.986Z,102851.88
2024-01-29T14:12:36.586Z,102851.00
2024-01-29T14:15:05.348Z,102847.94
2024-01-29T14:17:32.948Z,102853.16
2024-01-29T14:20:01.324Z,102856.13
2024-01-29T14:22:29.396Z,102845.09
2024-01-29T14:24:58.391Z,102861.72
2024-01-29T14:27:26.091Z,102862.31
2024-01-29T14:29:53.708Z,102862.00
2024-01-29T14:32:21.173Z,102862.00
2024-01-29T14:34:48.553Z,102860.91
2024-01-29T14:37:16.168Z,102861.13
2024-01-29T14:39:43.969Z,102864.06
2024-01-29T14:42:11.727Z,102870.47
2024-01-29T14:44:39.063Z,102876.16
2024-01-29T14:47:06.689Z,102861.09
2024-01-29T14:49:34.128Z,102861.25
2024-01-29T14:52:04.252Z,102864.28
2024-01-29T14:54:31.993Z,102865.38
2024-01-29T14:56:59.571Z,102860.78
2024-01-29T14:59:26.964Z,102870.72
2024-01-29T15:01:54.556Z,102874.78
2024-01-29T15:04:22.526Z,102873.75
2024-01-29T15:06:50.229Z,102870.47
2024-01-29T15:09:19.282Z,102866.84
2024-01-29T15:11:47.368Z,102864.16
2024-01-29T15:14:14.999Z,102861.09
2024-01-29T15:16:42.709Z,102862.44
2024-01-29T15:19:10.377Z,102870.34
2024-01-29T15:21:38.041Z,102873.66
2024-01-29T15:24:05.693Z,102876.81
2024-01-29T15:26:33.916Z,102877.59
2024-01-29T15:29:01.437Z,102876.75
2024-01-29T15:31:32.145Z,102881.19
2024-01-29T15:34:00.319Z,102883.66
2024-01-29T15:36:27.893Z,102876.28
2024-01-29T15:38:55.943Z,102878.44
2024-01-29T15:41:23.352Z,102875.09
2024-01-29T15:43:50.900Z,102865.00
2024-01-29T15:46:19.143Z,102859.22
2024-01-29T15:48:49.764Z,102863.28
2024-01-29T15:51:21.650Z,102852.31
2024-01-29T15:53:51.481Z,102848.97
2024-01-29T15:56:19.618Z,102851.00
2024-01-29T15:58:47.176Z,102848.25
2024-01-29T16:01:15.109Z,102848.47
2024-01-29T16:03:42.696Z,102848.94
2024-01-29T16:06:10.423Z,102866.41
2024-01-29T16:08:39.074Z,102868.81
2024-01-29T16:11:06.553Z,102868.47
2024-01-29T16:13:34.132Z,102875.50
2024-01-29T16:16:01.641Z,102870.53
2024-01-29T16:18:29.328Z,102867.22
2024-01-29T16:20:56.754Z,102870.41
2024-01-29T16:23:29.587Z,102878.81
2024-01-29T16:25:57.273Z,102881.31
2024-01-29T16:28:25.302Z,102880.72
2024-01-29T16:30:53.051Z,102885.66
2024-01-29T16:33:20.677Z,102890.03
2024-01-29T16:35:48.182Z,102895.75
2024-01-29T16:38:15.638Z,102899.47
2024-01-29T16:40:43.295Z,102891.53
2024-01-29T16:43:10.979Z,102895.03
2024-01-29T16:45:38.648Z,102892.88
2024-01-29T16:48:06.639Z,102898.34
2024-01-29T16:50:34.210Z,102896.13
2024-01-29T16:53:01.680Z,102904.59
2024-01-29T16:55:29.252Z,102906.25
2024-01-29T16:57:56.905Z,102909.41
2024-01-29T17:00:24.554Z,102907.06
2024-01-29T17:02:52.050Z,102917.91
2024-01-29T17:05:21.827Z,102912.88
2024-01-29T17:07:52.751Z,102922.84
2024-01-29T17:10:20.673Z,102923.59
2024-01-29T17:12:49.259Z,102912.56
2024-01-29T17:15:17.243Z,102914.94
2024-01-29T17:17:44.695Z,102911.97
2024-01-29T17:20:12.711Z,102925.59
2024-01-29T17:22:40.107Z,102934.84
2024-01-29T17:25:07.994Z,102932.88
2024-01-29T17:27:36.142Z,102927.91
2024-01-29T17:30:03.739Z,102932.53
2024-01-29T17:32:31.235Z,102936.41
2024-01-29T17:34:58.962Z,102939.94
2024-01-29T17:37:27.460Z,102943.75
2024-01-29T17:39:55.278Z,102943.50
2024-01-29T17:42:22.584Z,102947.84
2024-01-29T17:44:50.197Z,102947.63
2024-01-29T17:47:17.805Z,102954.66
2024-01-29T17:49:45.455Z,102949.91
2024-01-29T17:52:13.335Z,102946.63
2024-01-29T17:54:44.907Z,102955.84
2024-01-29T17:57:12.621Z,102958.50
2024-01-29T17:59:40.074Z,102958.72
2024-01-29T18:02:07.786Z,102955.19
2024-01-29T18:04:35.319Z,102956.28
2024-01-29T18:07:03.062Z,102958.41
2024-01-29T18:09:30.709Z,102957.47
2024-01-29T18:12:00.048Z,102945.69
2024-01-29T18:14:27.601Z,102947.94
2024-01-29T18:16:54.980Z,102950.53
2024-01-29T18:19:23.515Z,102955.66
2024-01-29T18:21:51.073Z,102950.47
2024-01-29T18:24:21.089Z,102962.66
2024-01-29T18:26:48.757Z,102953.06
2024-01-29T18:29:16.157Z,102954.03
2024-01-29T18:31:43.609Z,102955.34
2024-01-29T18:34:11.199Z,102953.72
2024-01-29T18:36:38.675Z,102969.22
2024-01-29T18:39:06.265Z,102955.00
2024-01-29T18:41:33.608Z,102969.22
2024-01-29T18:44:01.170Z,102965.91
2024-01-29T18:46:28.632Z,102977.25
2024-01-29T18:48:56.096Z,102982.69
2024-01-29T18:51:30.832Z,102983.19
2024-01-29T18:54:00.837Z,102991.13
2024-01-29T18:56:30.200Z,102994.91
2024-01-29T18:58:58.281Z,103002.00
2024-01-29T19:01:26.344Z,102996.78
2024-01-29T19:03:54.244Z,103000.56
2024-01-29T19:06:21.964Z,103003.28
2024-01-29T19:08:49.592Z,102990.19
2024-01-29T19:11:17.160Z,102991.47
2024-01-29T19:13:44.767Z,102988.41
2024-01-29T19:16:12.243Z,102990.56
2024-01-29T19:18:40.579Z,102989.88
2024-01-29T19:21:08.312Z,102981.88
2024-01-29T19:23:36.652Z,102986.31
2024-01-29T19:26:05.773Z,103000.25
2024-01-29T19:28:34.864Z,102979.97
2024-01-29T19:31:02.940Z,102992.09
2024-01-29T19:33:30.932Z,102978.88
2024-01-29T19:35:59.024Z,102968.75
2024-01-29T19:38:28.749Z,102976.66
2024-01-29T19:40:56.755Z,102982.78
2024-01-29T19:43:24.728Z,102966.25
2024-01-29T19:45:54.655Z,102969.56
2024-01-29T19:48:22.631Z,102972.50
2024-01-29T19:50:50.334Z,102974.06
2024-01-29T19:53:17.988Z,102964.97
2024-01-29T19:55:45.587Z,102952.44
2024-01-29T19:58:13.445Z,102966.97
2024-01-29T20:00:41.460Z,102950.91
2024-01-29T20:03:09.145Z,102974.19
2024-01-29T20:05:36.963Z,102968.63
2024-01-29T20:08:04.988Z,102981.53
2024-01-29T20:10:32.739Z,102980.09
2024-01-29T20:13:00.518Z,102976.53
2024-01-29T20:15:28.210Z,102972.16
2024-01-29T20:17:55.803Z,102978.44
2024-01-29T20:20:23.690Z,102975.97
2024-01-29T20:22:51.417Z,102964.88
2024-01-29T20:25:20.505Z,102974.75
2024-01-29T20:27:48.586Z,102965.44
2024-01-29T20:30:16.360Z,102974.75
2024-01-29T20:32:44.097Z,102970.53
2024-01-29T20:35:12.669Z,102978.19
2024-01-29T20:37:40.791Z,102953.53
2024-01-29T20:40:09.217Z,102961.41
2024-01-29T20:42:38.817Z,102966.38
2024-01-29T20:45:07.130Z,102969.94
2024-01-29T20:47:35.083Z,102979.97
2024-01-29T20:50:05.562Z,102983.53
2024-01-29T20:52:33.366Z,102986.47
2024-01-29T20:55:07.545Z,102976.69
2024-01-29T20:57:42.082Z,102986.94
2024-01-29T21:00:09.853Z,102983.06
2024-01-29T21:02:37.437Z,102980.81
2024-01-29T21:05:06.213Z,102975.97
2024-01-29T21:07:34.056Z,102974.91
2024-01-29T21:10:03.399Z,102972.78
2024-01-29T21:12:30.988Z,102973.34
2024-01-29T21:15:00.930Z,102971.72
2024-01-29T21:17:28.573Z,102977.25
2024-01-29T21:19:56.295Z,102979.50
2024-01-29T21:22:24.013Z,102976.78
2024-01-29T21:24:51.872Z,102978.44
2024-01-29T21:27:19.429Z,102976.31
2024-01-29T21:29:46.840Z,102984.81
2024-01-29T21:32:17.471Z,102987.06
2024-01-29T21:34:45.275Z,102982.56
2024-01-29T21:37:13.018Z,102979.41
2024-01-29T21:39:40.611Z,102997.63
2024-01-29T21:42:08.017Z,102992.53
2024-01-29T21:44:39.179Z,102990.63
2024-01-29T21:47:07.820Z,102990.97
2024-01-29T21:49:35.757Z,102990.75
2024-01-29T21:52:03.454Z,103000.28
2024-01-29T21:54:31.078Z,102990.03
2024-01-29T21:56:58.911Z,103001.03
2024-01-29T21:59:27.701Z,103005.94
2024-01-29T22:01:55.463Z,103004.19
2024-01-29T22:04:23.039Z,103008.91
2024-01-29T22:06:50.762Z,103001.81
2024-01-29T22:09:18.219Z,102999.69
2024-01-29T22:11:46.005Z,103000.25
2024-01-29T22:14:13.400Z,102997.66
2024-01-29T22:16:42.156Z,102994.69
2024-01-29T22:19:09.740Z,102999.91
2024-01-29T22:21:37.861Z,102995.28
2024-01-29T22:24:05.695Z,102987.72
2024-01-29T22:26:33.296Z,102992.06
2024-01-29T22:29:01.048Z,102993.38
2024-01-29T22:31:28.651Z,102986.63
2024-01-29T22:33:56.204Z,102987.47
2024-01-29T22:36:23.825Z,102990.44
2024-01-29T22:38:51.324Z,102985.81
2024-01-29T22:41:18.798Z,102991.00
2024-01-29T22:43:46.399Z,102995.13
2024-01-29T22:46:13.914Z,102989.22
2024-01-29T22:48:41.620Z,102989.00
2024-01-29T22:51:10.643Z,102995.00
2024-01-29T22:53:38.500Z,102992.63
2024-01-29T22:56:06.390Z,102991.56
2024-01-29T22:58:33.852Z,102992.38
2024-01-29T23:01:01.350Z,102993.69
2024-01-29T23:03:28.982Z,103002.69
2024-01-29T23:05:56.471Z,102994.44
2024-01-29T23:08:23.986Z,103004.25
2024-01-29T23:10:51.390Z,102996.31
2024-01-29T23:13:20.019Z,102988.41
2024-01-29T23:15:47.679Z,102989.47
2024-01-29T23:18:15.270Z,102996.22
2024-01-29T23:20:43.116Z,102993.72
2024-01-29T23:23:12.292Z,103002.34
2024-01-29T23:25:39.965Z,103004.72
2024-01-29T23:28:07.636Z,102995.66
2024-01-29T23:30:35.044Z,102987.72
2024-01-29T23:33:02.961Z,102985.97
2024-01-29T23:35:33.222Z,102984.81
2024-01-29T23:38:01.296Z,102985.53
2024-01-29T23:40:28.916Z,102976.44
2024-01-29T23:42:56.709Z,102978.22
2024-01-29T23:45:25.936Z,102969.69
2024-01-29T23:47:53.353Z,102972.06
2024-01-29T23:50:20.891Z,102973.59
2024-01-29T23:52:48.337Z,102971.56
2024-01-29T23:55:16.018Z,102965.78
2024-01-29T23:57:43.495Z,102968.97
